createdAt,value
2023-03-11T00:00:47.340Z,99608.16
2023-03-11T00:03:17.558Z,99618.41
2023-03-11T00:05:47.876Z,99616.63
2023-03-11T00:08:18.151Z,99598.63
2023-03-11T00:10:47.297Z,99613.63
2023-03-11T00:13:17.026Z,99603.94
2023-03-11T00:15:47.064Z,99609.63
2023-03-11T00:18:14.955Z,99614.59
2023-03-11T00:20:45.650Z,99602.03
2023-03-11T00:23:16.016Z,99629.44
2023-03-11T00:25:45.513Z,99595.66
2023-03-11T00:28:14.707Z,99616.16
2023-03-11T00:30:43.945Z,99606.47
2023-03-11T00:33:13.302Z,99616.28
2023-03-11T00:35:41.451Z,99630.59
2023-03-11T00:38:13.358Z,99622.00
2023-03-11T00:40:42.680Z,99634.44
2023-03-11T00:43:10.795Z,99637.91
2023-03-11T00:45:39.091Z,99636.94
2023-03-11T00:48:07.976Z,99650.25
2023-03-11T00:50:38.316Z,99637.78
2023-03-11T00:53:07.087Z,99646.38
2023-03-11T00:55:36.208Z,99641.50
2023-03-11T00:58:07.627Z,99646.91
2023-03-11T01:00:35.962Z,99651.78
2023-03-11T01:03:03.798Z,99656.63
2023-03-11T01:05:34.257Z,99660.50
2023-03-11T01:08:02.373Z,99658.13
2023-03-11T01:10:31.183Z,99654.97
2023-03-11T01:12:59.053Z,99660.91
2023-03-11T01:15:30.421Z,99644.44
2023-03-11T01:17:58.208Z,99648.00
2023-03-11T01:20:26.109Z,99645.91
2023-03-11T01:22:54.056Z,99651.44
2023-03-11T01:25:23.901Z,99643.84
2023-03-11T01:27:51.808Z,99643.13
2023-03-11T01:30:21.613Z,99648.13
2023-03-11T01:32:51.802Z,99639.69
2023-03-11T01:35:21.270Z,99641.34
2023-03-11T01:37:48.994Z,99646.59
2023-03-11T01:40:21.859Z,99649.94
2023-03-11T01:42:49.562Z,99648.97
2023-03-11T01:45:32.205Z,99659.50
2023-03-11T01:48:01.218Z,99669.78
2023-03-11T01:50:35.878Z,99673.22
2023-03-11T01:53:04.141Z,99685.72
2023-03-11T01:55:32.979Z,99679.88
2023-03-11T01:58:03.486Z,99686.25
2023-03-11T02:00:31.143Z,99693.47
2023-03-11T02:03:02.339Z,99704.00
2023-03-11T02:05:30.120Z,99702.03
2023-03-11T02:07:59.228Z,99693.16
2023-03-11T02:10:27.162Z,99703.69
2023-03-11T02:12:55.009Z,99702.88
2023-03-11T02:15:22.735Z,99697.34
2023-03-11T02:17:50.722Z,99695.94
2023-03-11T02:20:34.042Z,99684.75
2023-03-11T02:23:03.061Z,99681.50
2023-03-11T02:25:37.317Z,99679.84
2023-03-11T02:28:10.820Z,99674.56
2023-03-11T02:30:41.887Z,99676.66
2023-03-11T02:33:10.360Z,99673.19
2023-03-11T02:35:38.500Z,99662.91
2023-03-11T02:38:06.448Z,99674.28
2023-03-11T02:40:42.718Z,99679.94
2023-03-11T02:43:15.964Z,99684.38
2023-03-11T02:45:47.807Z,99690.88
2023-03-11T02:48:16.572Z,99689.22
2023-03-11T02:50:46.861Z,99694.91
2023-03-11T02:53:15.185Z,99702.25
2023-03-11T02:55:42.921Z,99702.25
2023-03-11T02:58:11.908Z,99708.91
2023-03-11T03:00:39.557Z,99703.38
2023-03-11T03:03:07.339Z,99705.16
2023-03-11T03:05:35.063Z,99700.44
2023-03-11T03:08:03.346Z,99700.28
2023-03-11T03:10:31.256Z,99700.28
2023-03-11T03:12:58.958Z,99704.44
2023-03-11T03:15:28.177Z,99713.84
2023-03-11T03:17:55.960Z,99717.03
2023-03-11T03:20:23.640Z,99723.66
2023-03-11T03:22:52.210Z,99727.63
2023-03-11T03:25:20.102Z,99727.13
2023-03-11T03:27:47.755Z,99723.91
2023-03-11T03:30:15.722Z,99726.66
2023-03-11T03:32:44.987Z,99724.75
2023-03-11T03:35:12.697Z,99726.94
2023-03-11T03:37:40.362Z,99731.94
2023-03-11T03:40:10.287Z,99740.88
2023-03-11T03:42:38.333Z,99737.09
2023-03-11T03:45:08.752Z,99744.09
2023-03-11T03:47:37.347Z,99742.47
2023-03-11T03:50:09.027Z,99742.19
2023-03-11T03:52:37.175Z,99749.16
2023-03-11T03:55:06.929Z,99755.78
2023-03-11T03:57:34.606Z,99749.91
2023-03-11T04:00:02.291Z,99749.91
2023-03-11T04:02:30.021Z,99751.13
2023-03-11T04:04:58.088Z,99756.09
2023-03-11T04:07:27.177Z,99766.78
2023-03-11T04:09:54.905Z,99755.03
2023-03-11T04:12:22.673Z,99761.63
2023-03-11T04:14:50.449Z,99757.84
2023-03-11T04:17:18.803Z,99766.97
2023-03-11T04:19:46.640Z,99754.72
2023-03-11T04:22:14.280Z,99767.91
2023-03-11T04:24:43.466Z,99763.63
2023-03-11T04:27:11.102Z,99766.13
2023-03-11T04:29:38.959Z,99765.09
2023-03-11T04:32:07.357Z,99770.72
2023-03-11T04:34:35.067Z,99767.53
2023-03-11T04:37:02.772Z,99771.13
2023-03-11T04:39:30.455Z,99763.50
2023-03-11T04:41:59.440Z,99758.63
2023-03-11T04:44:27.373Z,99753.88
2023-03-11T04:46:55.114Z,99759.13
2023-03-11T04:49:22.830Z,99763.25
2023-03-11T04:51:50.569Z,99767.53
2023-03-11T04:54:18.439Z,99771.00
2023-03-11T04:56:46.097Z,99781.75
2023-03-11T04:59:15.249Z,99782.91
2023-03-11T05:01:42.944Z,99786.31
2023-03-11T05:04:11.827Z,99789.53
2023-03-11T05:06:39.680Z,99790.47
2023-03-11T05:09:10.172Z,99793.28
2023-03-11T05:11:37.846Z,99783.41
2023-03-11T05:14:05.479Z,99786.03
2023-03-11T05:16:34.562Z,99785.13
2023-03-11T05:19:22.206Z,99793.59
2023-03-11T05:21:49.856Z,99786.81
2023-03-11T05:24:17.528Z,99796.47
2023-03-11T05:26:48.100Z,99797.44
2023-03-11T05:29:16.218Z,99803.91
2023-03-11T05:31:45.215Z,99805.72
2023-03-11T05:34:12.851Z,99803.41
2023-03-11T05:36:40.720Z,99802.25
2023-03-11T05:39:08.368Z,99816.44
2023-03-11T05:41:36.227Z,99819.59
2023-03-11T05:44:04.134Z,99812.78
2023-03-11T05:46:33.344Z,99808.72
2023-03-11T05:49:02.381Z,99812.69
2023-03-11T05:51:30.172Z,99819.84
2023-03-11T05:53:58.697Z,99815.19
2023-03-11T05:56:26.388Z,99815.94
2023-03-11T05:58:54.298Z,99811.97
2023-03-11T06:01:21.952Z,99815.69
2023-03-11T06:03:49.755Z,99813.31
2023-03-11T06:06:18.909Z,99821.19
2023-03-11T06:08:49.842Z,99828.72
2023-03-11T06:11:18.625Z,99826.34
2023-03-11T06:13:46.357Z,99826.69
2023-03-11T06:16:14.223Z,99835.47
2023-03-11T06:18:41.947Z,99836.44
2023-03-11T06:21:17.069Z,99831.44
2023-03-11T06:23:46.110Z,99838.09
2023-03-11T06:26:15.844Z,99844.78
2023-03-11T06:28:44.019Z,99841.22
2023-03-11T06:31:13.703Z,99847.88
2023-03-11T06:33:41.451Z,99852.59
2023-03-11T06:36:09.546Z,99858.09
2023-03-11T06:38:37.525Z,99860.44
2023-03-11T06:41:08.393Z,99874.81
2023-03-11T06:43:36.759Z,99882.31
2023-03-11T06:46:10.644Z,99886.22
2023-03-11T06:48:38.382Z,99890.72
2023-03-11T06:51:06.409Z,99892.91
2023-03-11T06:53:34.472Z,99896.22
2023-03-11T06:56:03.803Z,99902.69
2023-03-11T06:58:34.273Z,99902.88
2023-03-11T07:01:03.386Z,99901.38
2023-03-11T07:03:31.558Z,99908.75
2023-03-11T07:05:59.905Z,99907.91
2023-03-11T07:08:27.873Z,99906.94
2023-03-11T07:11:04.133Z,99914.31
2023-03-11T07:13:33.521Z,99911.34
2023-03-11T07:16:02.562Z,99918.81
2023-03-11T07:18:30.614Z,99921.44
2023-03-11T07:20:58.360Z,99921.09
2023-03-11T07:23:26.011Z,99923.91
2023-03-11T07:25:55.511Z,99927.81
2023-03-11T07:28:23.905Z,99931.03
2023-03-11T07:30:53.936Z,99937.56
2023-03-11T07:33:24.006Z,99939.69
2023-03-11T07:35:52.415Z,99930.59
2023-03-11T07:38:21.048Z,99952.91
2023-03-11T07:40:48.759Z,99946.03
2023-03-11T07:43:16.355Z,99953.69
2023-03-11T07:45:44.059Z,99959.16
2023-03-11T07:48:13.183Z,99960.28
2023-03-11T07:50:40.952Z,99959.72
2023-03-11T07:53:08.724Z,99968.13
2023-03-11T07:55:36.616Z,99970.94
2023-03-11T07:58:04.358Z,99972.38
2023-03-11T08:00:32.020Z,99989.03
2023-03-11T08:02:59.674Z,99999.94
2023-03-11T08:05:31.375Z,100004.00
2023-03-11T08:07:59.043Z,100004.72
2023-03-11T08:10:26.654Z,100011.13
2023-03-11T08:12:54.306Z,100000.38
2023-03-11T08:15:21.986Z,100010.94
2023-03-11T08:17:49.629Z,100011.25
2023-03-11T08:20:17.530Z,100017.84
2023-03-11T08:22:57.688Z,100024.66
2023-03-11T08:25:26.373Z,100012.97
2023-03-11T08:27:54.136Z,100004.81
2023-03-11T08:30:22.844Z,100012.72
2023-03-11T08:32:50.883Z,100014.03
2023-03-11T08:35:18.638Z,100019.19
2023-03-11T08:37:47.778Z,100019.63
2023-03-11T08:40:15.718Z,100019.72
2023-03-11T08:42:43.381Z,100017.06
2023-03-11T08:45:12.095Z,100017.34
2023-03-11T08:47:40.952Z,100019.13
2023-03-11T08:50:13.695Z,100019.16
2023-03-11T08:52:41.712Z,100022.09
2023-03-11T08:55:14.333Z,100026.94
2023-03-11T08:57:42.358Z,100035.53
2023-03-11T09:00:13.188Z,100040.81
2023-03-11T09:02:41.591Z,100034.06
2023-03-11T09:05:10.239Z,100030.91
2023-03-11T09:07:38.101Z,100030.44
2023-03-11T09:10:06.291Z,100026.03
2023-03-11T09:12:35.382Z,100028.94
2023-03-11T09:15:03.037Z,100015.56
2023-03-11T09:17:30.715Z,100029.97
2023-03-11T09:19:58.486Z,100023.38
2023-03-11T09:22:26.253Z,100028.00
2023-03-11T09:24:54.176Z,100023.94
2023-03-11T09:27:21.855Z,100019.19
2023-03-11T09:29:50.889Z,100027.53
2023-03-11T09:32:19.748Z,100037.09
2023-03-11T09:34:47.456Z,100045.03
2023-03-11T09:37:15.140Z,100034.19
2023-03-11T09:39:42.844Z,100023.72
2023-03-11T09:42:21.092Z,100029.75
2023-03-11T09:45:00.175Z,100033.53
2023-03-11T09:47:44.508Z,100021.56
2023-03-11T09:50:21.302Z,100017.91
2023-03-11T09:52:59.801Z,100011.56
2023-03-11T09:55:40.257Z,99992.56
2023-03-11T09:58:14.667Z,99999.34
2023-03-11T10:00:44.441Z,100012.22
2023-03-11T10:03:28.461Z,100009.28
2023-03-11T10:06:02.525Z,100004.34
2023-03-11T10:08:35.702Z,100013.63
2023-03-11T10:11:11.903Z,100009.22
2023-03-11T10:13:45.266Z,100021.06
2023-03-11T10:16:23.245Z,100033.16
2023-03-11T10:18:59.170Z,100034.69
2023-03-11T10:21:38.964Z,100039.47
2023-03-11T10:24:19.562Z,100035.22
2023-03-11T10:26:52.332Z,100032.41
2023-03-11T10:29:24.772Z,100034.69
2023-03-11T10:31:58.222Z,100026.25
2023-03-11T10:34:32.441Z,100041.88
2023-03-11T10:37:03.916Z,100048.03
2023-03-11T10:39:33.452Z,100055.06
2023-03-11T10:42:03.521Z,100052.72
2023-03-11T10:44:35.552Z,100055.63
2023-03-11T10:47:05.881Z,100057.53
2023-03-11T10:49:34.061Z,100048.00
2023-03-11T10:52:05.005Z,100038.69
2023-03-11T10:54:37.462Z,100035.19
2023-03-11T10:57:19.919Z,100037.25
2023-03-11T10:59:50.393Z,100040.66
2023-03-11T11:02:27.036Z,100040.09
2023-03-11T11:05:09.122Z,100045.97
2023-03-11T11:07:39.648Z,100054.81
2023-03-11T11:10:20.745Z,100059.34
2023-03-11T11:12:56.073Z,100065.19
2023-03-11T11:15:26.265Z,100065.41
2023-03-11T11:17:57.556Z,100063.66
2023-03-11T11:20:26.843Z,100064.66
2023-03-11T11:22:56.969Z,100068.09
2023-03-11T11:25:27.541Z,100063.41
2023-03-11T11:27:56.823Z,100071.06
2023-03-11T11:30:25.456Z,100060.03
2023-03-11T11:32:55.627Z,100053.63
2023-03-11T11:35:26.253Z,100055.53
2023-03-11T11:38:00.528Z,100045.06
2023-03-11T11:40:31.518Z,100042.72
2023-03-11T11:43:04.242Z,100032.94
2023-03-11T11:45:38.362Z,100042.78
2023-03-11T11:48:15.453Z,100031.63
2023-03-11T11:50:46.506Z,100032.31
2023-03-11T11:53:36.169Z,100032.78
2023-03-11T11:56:04.759Z,100041.38
2023-03-11T11:58:32.647Z,100050.59
2023-03-11T12:01:14.664Z,100052.44
2023-03-11T12:04:27.069Z,100056.00
2023-03-11T12:07:19.636Z,100053.53
2023-03-11T12:09:55.093Z,100050.72
2023-03-11T12:12:29.141Z,100043.78
2023-03-11T12:15:03.987Z,100040.22
2023-03-11T12:17:33.723Z,100041.22
2023-03-11T12:20:08.626Z,100037.41
2023-03-11T12:23:10.524Z,100024.81
2023-03-11T12:25:46.710Z,100027.78
2023-03-11T12:28:20.974Z,100036.25
2023-03-11T12:30:52.535Z,100038.91
2023-03-11T12:33:29.005Z,100030.13
2023-03-11T12:35:58.915Z,100033.75
2023-03-11T12:38:33.981Z,100039.91
2023-03-11T12:41:05.812Z,100042.28
2023-03-11T12:44:09.984Z,100037.28
2023-03-11T12:47:11.334Z,100035.72
2023-03-11T12:49:43.492Z,100029.91
2023-03-11T12:52:26.765Z,100026.22
2023-03-11T12:55:30.683Z,100029.78
2023-03-11T12:58:08.884Z,100022.88
2023-03-11T13:00:54.387Z,100021.94
2023-03-11T13:03:46.369Z,100025.31
2023-03-11T13:06:34.396Z,100029.91
2023-03-11T13:09:02.368Z,100023.41
2023-03-11T13:11:42.909Z,100055.19
2023-03-11T13:14:20.148Z,100043.09
2023-03-11T13:16:48.653Z,100056.25
2023-03-11T13:19:35.838Z,100050.63
2023-03-11T13:22:05.769Z,100054.59
2023-03-11T13:24:52.229Z,100050.16
2023-03-11T13:27:32.342Z,100047.88
2023-03-11T13:30:06.044Z,100047.88
2023-03-11T13:33:05.472Z,100053.50
2023-03-11T13:35:51.692Z,100059.59
2023-03-11T13:38:42.409Z,100055.78
2023-03-11T13:41:16.713Z,100041.44
2023-03-11T13:43:48.064Z,100040.25
2023-03-11T13:46:27.059Z,100041.84
2023-03-11T13:49:02.002Z,100033.66
2023-03-11T13:51:36.480Z,100048.22
2023-03-11T13:54:07.346Z,100048.19
2023-03-11T13:56:44.688Z,100052.50
2023-03-11T13:59:26.962Z,100049.50
2023-03-11T14:01:57.135Z,100060.13
2023-03-11T14:04:27.839Z,100062.47
2023-03-11T14:06:55.633Z,100056.53
2023-03-11T14:09:28.576Z,100059.69
2023-03-11T14:12:06.660Z,100069.44
2023-03-11T14:14:49.027Z,100071.63
2023-03-11T14:17:18.588Z,100072.31
2023-03-11T14:20:04.696Z,100074.84
2023-03-11T14:22:32.726Z,100068.91
2023-03-11T14:25:05.200Z,100075.56
2023-03-11T14:27:33.415Z,100075.78
2023-03-11T14:30:02.899Z,100085.84
2023-03-11T14:32:33.055Z,100085.19
2023-03-11T14:35:03.225Z,100087.31
2023-03-11T14:37:34.195Z,100090.94
2023-03-11T14:40:02.042Z,100080.00
2023-03-11T14:42:35.553Z,100083.16
2023-03-11T14:45:09.581Z,100078.25
2023-03-11T14:47:41.161Z,100080.81
2023-03-11T14:50:16.313Z,100076.38
2023-03-11T14:52:47.691Z,100076.28
2023-03-11T14:55:19.024Z,100070.91
2023-03-11T14:57:52.385Z,100076.06
2023-03-11T15:00:25.392Z,100060.19
2023-03-11T15:03:01.232Z,100072.84
2023-03-11T15:05:36.579Z,100071.19
2023-03-11T15:08:07.393Z,100076.28
2023-03-11T15:10:36.896Z,100078.66
2023-03-11T15:13:07.944Z,100077.38
2023-03-11T15:15:37.220Z,100091.28
2023-03-11T15:18:20.232Z,100085.91
2023-03-11T15:20:48.242Z,100080.38
2023-03-11T15:23:23.190Z,100083.66
2023-03-11T15:25:51.400Z,100075.25
2023-03-11T15:28:24.504Z,100085.31
2023-03-11T15:31:17.604Z,100074.94
2023-03-11T15:33:46.360Z,100081.38
2023-03-11T15:36:39.510Z,100087.13
2023-03-11T15:39:19.366Z,100083.31
2023-03-11T15:41:49.421Z,100080.03
2023-03-11T15:44:29.164Z,100074.66
2023-03-11T15:46:59.579Z,100082.88
2023-03-11T15:49:27.411Z,100083.88
2023-03-11T15:51:59.349Z,100089.84
2023-03-11T15:54:27.055Z,100092.59
2023-03-11T15:56:56.121Z,100103.81
2023-03-11T15:59:25.252Z,100100.00
2023-03-11T16:01:52.998Z,100106.44
2023-03-11T16:04:23.108Z,100110.34
2023-03-11T16:06:59.613Z,100114.97
2023-03-11T16:09:34.927Z,100115.84
2023-03-11T16:12:02.932Z,100114.69
2023-03-11T16:14:30.595Z,100120.09
2023-03-11T16:16:58.256Z,100124.50
2023-03-11T16:19:27.319Z,100119.78
2023-03-11T16:21:55.100Z,100124.78
2023-03-11T16:24:25.924Z,100117.97
2023-03-11T16:26:54.183Z,100122.13
2023-03-11T16:29:23.154Z,100121.81
2023-03-11T16:31:50.860Z,100121.16
2023-03-11T16:34:19.061Z,100125.34
2023-03-11T16:36:48.170Z,100118.69
2023-03-11T16:39:15.840Z,100118.28
2023-03-11T16:41:45.196Z,100130.13
2023-03-11T16:44:13.285Z,100138.50
2023-03-11T16:46:41.022Z,100142.44
2023-03-11T16:49:08.747Z,100140.06
2023-03-11T16:51:36.434Z,100147.72
2023-03-11T16:54:05.899Z,100147.56
2023-03-11T16:56:33.758Z,100143.00
2023-03-11T16:59:01.811Z,100149.13
2023-03-11T17:01:29.522Z,100153.31
2023-03-11T17:03:57.280Z,100156.34
2023-03-11T17:06:24.989Z,100159.13
2023-03-11T17:08:52.715Z,100160.78
2023-03-11T17:11:24.385Z,100168.72
2023-03-11T17:13:52.191Z,100158.56
2023-03-11T17:16:21.622Z,100166.47
2023-03-11T17:18:49.404Z,100167.88
2023-03-11T17:21:18.280Z,100173.53
2023-03-11T17:23:46.378Z,100181.03
2023-03-11T17:26:16.903Z,100179.63
2023-03-11T17:28:46.039Z,100180.16
2023-03-11T17:31:15.024Z,100176.94
2023-03-11T17:33:43.083Z,100170.53
2023-03-11T17:36:14.010Z,100175.38
2023-03-11T17:38:41.695Z,100178.97
2023-03-11T17:41:09.887Z,100178.03
2023-03-11T17:43:37.614Z,100181.50
2023-03-11T17:46:10.971Z,100184.25
2023-03-11T17:48:38.701Z,100192.47
2023-03-11T17:51:07.242Z,100199.94
2023-03-11T17:53:37.045Z,100193.66
2023-03-11T17:56:06.545Z,100200.88
2023-03-11T17:58:34.944Z,100206.91
2023-03-11T18:01:04.753Z,100202.72
2023-03-11T18:03:34.153Z,100209.50
2023-03-11T18:06:03.104Z,100221.06
2023-03-11T18:08:31.454Z,100221.03
2023-03-11T18:11:01.000Z,100220.19
2023-03-11T18:13:28.812Z,100224.38
2023-03-11T18:16:00.523Z,100219.41
2023-03-11T18:18:36.158Z,100223.19
2023-03-11T18:21:04.976Z,100225.81
2023-03-11T18:23:33.935Z,100224.19
2023-03-11T18:26:02.865Z,100226.81
2023-03-11T18:28:30.881Z,100232.59
2023-03-11T18:30:59.121Z,100232.59
2023-03-11T18:33:26.939Z,100237.16
2023-03-11T18:35:56.094Z,100223.41
2023-03-11T18:38:24.429Z,100227.53
2023-03-11T18:40:58.135Z,100230.38
2023-03-11T18:43:25.803Z,100225.09
2023-03-11T18:45:53.486Z,100229.28
2023-03-11T18:48:21.437Z,100230.38
2023-03-11T18:50:52.200Z,100228.63
2023-03-11T18:53:24.820Z,100230.59
2023-03-11T18:55:53.176Z,100234.66
2023-03-11T18:58:21.005Z,100229.81
2023-03-11T19:00:48.764Z,100232.59
2023-03-11T19:03:16.464Z,100234.97
2023-03-11T19:05:50.545Z,100235.44
2023-03-11T19:08:18.800Z,100232.97
2023-03-11T19:10:48.150Z,100240.41
2023-03-11T19:13:19.277Z,100239.09
2023-03-11T19:15:47.713Z,100234.38
2023-03-11T19:18:15.770Z,100245.00
2023-03-11T19:20:43.560Z,100248.22
2023-03-11T19:23:11.468Z,100248.69
2023-03-11T19:25:39.236Z,100247.56
2023-03-11T19:28:08.239Z,100242.88
2023-03-11T19:30:36.022Z,100250.75
2023-03-11T19:33:03.846Z,100246.47
2023-03-11T19:35:31.669Z,100250.38
2023-03-11T19:37:59.373Z,100245.03
2023-03-11T19:40:29.960Z,100242.41
2023-03-11T19:42:59.038Z,100251.53
2023-03-11T19:45:29.549Z,100248.63
2023-03-11T19:47:57.212Z,100254.13
2023-03-11T19:50:25.504Z,100265.47
2023-03-11T19:52:53.236Z,100256.50
2023-03-11T19:55:20.957Z,100262.00
2023-03-11T19:57:48.833Z,100266.09
2023-03-11T20:00:17.759Z,100276.91
2023-03-11T20:02:46.849Z,100278.91
2023-03-11T20:05:14.610Z,100279.53
2023-03-11T20:07:42.283Z,100281.47
2023-03-11T20:10:11.601Z,100275.25
2023-03-11T20:12:44.786Z,100280.28
2023-03-11T20:15:17.185Z,100285.06
2023-03-11T20:17:46.219Z,100292.09
2023-03-11T20:20:14.140Z,100295.22
2023-03-11T20:22:41.792Z,100298.19
2023-03-11T20:25:15.494Z,100293.06
2023-03-11T20:27:43.676Z,100293.41
2023-03-11T20:30:13.443Z,100294.63
2023-03-11T20:32:41.689Z,100298.19
2023-03-11T20:35:11.561Z,100292.34
2023-03-11T20:37:39.628Z,100295.56
2023-03-11T20:40:09.123Z,100300.59
2023-03-11T20:42:37.508Z,100305.84
2023-03-11T20:45:06.720Z,100301.91
2023-03-11T20:47:36.084Z,100308.97
2023-03-11T20:50:13.201Z,100308.59
2023-03-11T20:52:41.720Z,100309.53
2023-03-11T20:55:11.029Z,100315.00
2023-03-11T20:57:39.524Z,100324.09
2023-03-11T21:00:11.530Z,100317.53
2023-03-11T21:02:39.838Z,100319.69
2023-03-11T21:05:08.946Z,100321.84
2023-03-11T21:07:38.271Z,100326.50
2023-03-11T21:10:08.842Z,100322.84
2023-03-11T21:12:36.606Z,100325.69
2023-03-11T21:15:05.621Z,100322.91
2023-03-11T21:17:34.460Z,100327.00
2023-03-11T21:20:02.252Z,100323.41
2023-03-11T21:22:30.049Z,100317.53
2023-03-11T21:24:59.234Z,100327.31
2023-03-11T21:27:27.425Z,100322.63
2023-03-11T21:29:56.053Z,100318.69
2023-03-11T21:32:25.054Z,100319.59
2023-03-11T21:34:55.702Z,100326.06
2023-03-11T21:37:23.431Z,100322.69
2023-03-11T21:39:51.228Z,100321.69
2023-03-11T21:42:21.360Z,100319.28
2023-03-11T21:44:49.113Z,100317.78
2023-03-11T21:47:17.044Z,100310.25
2023-03-11T21:49:44.888Z,100311.25
2023-03-11T21:52:12.924Z,100311.00
2023-03-11T21:54:40.720Z,100309.59
2023-03-11T21:57:08.499Z,100322.97
2023-03-11T21:59:37.595Z,100319.97
2023-03-11T22:02:05.647Z,100321.75
2023-03-11T22:04:33.456Z,100317.34
2023-03-11T22:07:01.236Z,100333.94
2023-03-11T22:09:29.235Z,100325.09
2023-03-11T22:11:56.993Z,100327.22
2023-03-11T22:14:25.091Z,100322.66
2023-03-11T22:16:54.412Z,100326.91
2023-03-11T22:19:22.209Z,100320.81
2023-03-11T22:21:50.286Z,100322.88
2023-03-11T22:24:18.075Z,100327.16
2023-03-11T22:26:45.714Z,100333.16
2023-03-11T22:29:13.807Z,100316.41
2023-03-11T22:31:41.613Z,100322.84
2023-03-11T22:34:10.654Z,100326.88
2023-03-11T22:36:38.422Z,100329.25
2023-03-11T22:39:06.165Z,100327.72
2023-03-11T22:41:34.510Z,100327.81
2023-03-11T22:44:02.192Z,100320.81
2023-03-11T22:46:30.780Z,100328.31
2023-03-11T22:48:58.493Z,100325.91
2023-03-11T22:51:27.467Z,100327.63
2023-03-11T22:53:55.152Z,100317.72
2023-03-11T22:56:22.898Z,100316.59
2023-03-11T22:58:53.527Z,100318.75
2023-03-11T23:01:21.328Z,100324.63
2023-03-11T23:03:49.067Z,100319.06
2023-03-11T23:06:19.311Z,100319.09
2023-03-11T23:08:48.852Z,100332.06
2023-03-11T23:11:18.750Z,100329.63
2023-03-11T23:13:46.417Z,100333.31
2023-03-11T23:16:16.373Z,100344.75
2023-03-11T23:18:44.954Z,100342.66
2023-03-11T23:21:18.064Z,100339.06
2023-03-11T23:23:46.500Z,100336.56
2023-03-11T23:26:16.435Z,100339.13
2023-03-11T23:28:44.441Z,100331.66
2023-03-11T23:31:14.551Z,100336.28
2023-03-11T23:33:42.812Z,100331.59
2023-03-11T23:36:13.077Z,100337.44
2023-03-11T23:38:40.678Z,100326.72
2023-03-11T23:41:09.578Z,100334.31
2023-03-11T23:43:39.154Z,100336.16
2023-03-11T23:46:07.905Z,100331.66
2023-03-11T23:48:35.776Z,100322.72
2023-03-11T23:51:04.568Z,100330.94
2023-03-11T23:53:33.069Z,100320.34
2023-03-11T23:56:00.869Z,100316.03
2023-03-11T23:58:29.685Z,100314.34
